createdAt,value
2022-08-05T05:02:37.255Z,95218.00
2022-08-05T05:05:26.107Z,95218.28
2022-08-05T05:07:56.596Z,95211.88
2022-08-05T05:10:29.771Z,95212.13
2022-08-05T05:12:57.720Z,95214.97
2022-08-05T05:15:57.246Z,95219.22
2022-08-05T05:18:28.317Z,95215.16
2022-08-05T05:20:56.304Z,95218.59
2022-08-05T05:23:26.307Z,95221.63
2022-08-05T05:25:53.996Z,95232.41
2022-08-05T05:28:21.951Z,95233.59
2022-08-05T05:30:52.573Z,95222.66
2022-08-05T05:33:23.371Z,95227.97
2022-08-05T05:35:51.811Z,95229.31
2022-08-05T05:38:22.592Z,95222.09
2022-08-05T05:40:55.695Z,95234.84
2022-08-05T05:43:54.463Z,95233.13
2022-08-05T05:46:17.798Z,95235.69
2022-08-05T05:48:49.110Z,95237.94
2022-08-05T05:51:23.825Z,95238.53
2022-08-05T05:53:57.600Z,95247.03
2022-08-05T05:56:32.562Z,95244.09
2022-08-05T05:59:03.379Z,95241.22
2022-08-05T06:01:37.065Z,95241.38
2022-08-05T06:04:12.039Z,95236.72
2022-08-05T06:06:41.809Z,95244.66
2022-08-05T06:09:16.747Z,95241.56
2022-08-05T06:11:59.325Z,95235.97
2022-08-05T06:14:29.265Z,95236.41
2022-08-05T06:16:57.196Z,95231.31
2022-08-05T06:19:34.750Z,95243.53
2022-08-05T06:22:03.475Z,95240.78
2022-08-05T06:24:31.189Z,95232.53
2022-08-05T06:26:59.114Z,95242.09
2022-08-05T06:29:49.009Z,95231.50
2022-08-05T06:32:25.825Z,95238.69
2022-08-05T06:34:56.204Z,95234.81
2022-08-05T06:37:52.276Z,95232.84
2022-08-05T06:40:13.983Z,95238.84
2022-08-05T06:42:46.751Z,95236.13
2022-08-05T06:45:20.699Z,95246.47
2022-08-05T06:48:36.459Z,95247.28
2022-08-05T06:50:38.424Z,95252.06
2022-08-05T06:53:19.507Z,95258.88
2022-08-05T06:55:50.542Z,95250.94
2022-08-05T06:58:35.460Z,95254.13
2022-08-05T07:01:06.014Z,95257.72
2022-08-05T07:03:34.780Z,95258.50
2022-08-05T07:06:06.307Z,95254.13
2022-08-05T07:08:42.078Z,95253.34
2022-08-05T07:11:15.344Z,95259.69
2022-08-05T07:14:01.127Z,95267.69
2022-08-05T07:18:02.278Z,95270.84
2022-08-05T07:22:28.460Z,95280.38
2022-08-05T07:24:58.875Z,95287.13
2022-08-05T07:27:27.625Z,95279.56
2022-08-05T07:30:27.962Z,95291.50
2022-08-05T07:32:58.539Z,95299.06
2022-08-05T07:36:04.784Z,95303.44
2022-08-05T07:38:26.354Z,95297.47
2022-08-05T07:41:16.463Z,95313.38
2022-08-05T07:43:51.207Z,95309.03
2022-08-05T07:46:25.074Z,95319.00
2022-08-05T07:49:01.834Z,95318.63
2022-08-05T07:51:40.546Z,95326.63
2022-08-05T07:54:12.641Z,95330.19
2022-08-05T07:57:02.477Z,95329.78
2022-08-05T07:59:40.001Z,95336.16
2022-08-05T08:02:15.220Z,95343.34
2022-08-05T08:04:45.648Z,95351.72
2022-08-05T08:07:13.923Z,95351.72
2022-08-05T08:09:44.433Z,95346.94
2022-08-05T08:12:37.490Z,95352.50
2022-08-05T08:15:02.588Z,95365.25
2022-08-05T08:17:31.782Z,95355.69
2022-08-05T08:20:22.838Z,95364.88
2022-08-05T08:22:52.682Z,95367.66
2022-08-05T08:25:26.959Z,95377.59
2022-08-05T08:28:18.308Z,95375.63
2022-08-05T08:30:57.976Z,95376.81
2022-08-05T08:33:27.321Z,95380.78
2022-08-05T08:36:29.589Z,95391.13
2022-08-05T08:38:43.777Z,95399.88
2022-08-05T08:41:26.294Z,95399.03
2022-08-05T08:45:24.690Z,95399.03
2022-08-05T08:47:03.604Z,95410.56
2022-08-05T08:50:14.722Z,95411.81
2022-08-05T08:52:47.398Z,95420.97
2022-08-05T08:56:02.541Z,95416.25
2022-08-05T08:58:10.160Z,95432.56
2022-08-05T09:00:41.708Z,95424.13
2022-08-05T09:03:11.229Z,95426.94
2022-08-05T09:06:08.778Z,95441.69
2022-08-05T09:08:27.439Z,95435.31
2022-08-05T09:10:58.419Z,95436.91
2022-08-05T09:13:31.863Z,95432.13
2022-08-05T09:16:17.112Z,95442.91
2022-08-05T09:18:45.408Z,95443.81
2022-08-05T09:21:20.466Z,95449.34
2022-08-05T09:24:04.124Z,95444.59
2022-08-05T09:26:38.072Z,95435.44
2022-08-05T09:29:18.402Z,95452.97
2022-08-05T09:32:40.727Z,95444.59
2022-08-05T09:34:52.160Z,95457.38
2022-08-05T09:38:16.620Z,95447.38
2022-08-05T09:40:10.566Z,95457.38
2022-08-05T09:42:42.308Z,95449.38
2022-08-05T09:46:07.276Z,95441.41
2022-08-05T09:48:21.098Z,95444.50
2022-08-05T09:50:52.793Z,95451.28
2022-08-05T09:53:26.175Z,95432.47
2022-08-05T09:56:13.031Z,95445.19
2022-08-05T09:58:42.384Z,95452.34
2022-08-05T10:01:32.012Z,95441.47
2022-08-05T10:04:04.535Z,95445.22
2022-08-05T10:06:40.428Z,95440.06
2022-08-05T10:09:27.361Z,95443.22
2022-08-05T10:12:30.604Z,95439.25
2022-08-05T10:15:20.052Z,95446.75
2022-08-05T10:18:08.007Z,95448.59
2022-08-05T10:20:38.142Z,95450.94
2022-08-05T10:23:08.976Z,95453.78
2022-08-05T10:25:55.652Z,95453.00
2022-08-05T10:28:29.219Z,95462.56
2022-08-05T10:32:51.033Z,95470.84
2022-08-05T10:33:52.319Z,95465.00
2022-08-05T10:36:23.689Z,95476.78
2022-08-05T10:39:00.150Z,95465.28
2022-08-05T10:41:45.129Z,95471.25
2022-08-05T10:44:19.219Z,95464.75
2022-08-05T10:46:51.055Z,95464.31
2022-08-05T10:49:26.619Z,95454.09
2022-08-05T10:52:00.794Z,95460.50
2022-08-05T10:54:56.190Z,95451.28
2022-08-05T10:57:29.506Z,95463.81
2022-08-05T11:00:19.683Z,95456.72
2022-08-05T11:03:23.104Z,95452.59
2022-08-05T11:06:17.914Z,95446.91
2022-08-05T11:09:17.162Z,95446.78
2022-08-05T11:11:53.711Z,95450.00
2022-08-05T11:14:49.503Z,95442.38
2022-08-05T11:18:00.521Z,95441.66
2022-08-05T11:20:41.828Z,95439.66
2022-08-05T11:23:33.678Z,95440.22
2022-08-05T11:26:28.190Z,95431.78
2022-08-05T11:28:58.704Z,95428.59
2022-08-05T11:31:54.356Z,95434.53
2022-08-05T11:34:38.176Z,95435.91
2022-08-05T11:38:29.001Z,95440.25
2022-08-05T11:40:02.679Z,95437.72
2022-08-05T11:42:40.265Z,95439.03
2022-08-05T11:45:14.605Z,95436.72
2022-08-05T11:47:58.899Z,95448.00
2022-08-05T11:50:27.075Z,95442.81
2022-08-05T11:52:58.035Z,95442.84
2022-08-05T11:55:32.082Z,95447.88
2022-08-05T11:58:10.223Z,95439.88
2022-08-05T12:00:41.262Z,95427.81
2022-08-05T12:03:23.746Z,95428.13
2022-08-05T12:06:00.921Z,95425.13
2022-08-05T12:08:28.778Z,95425.44
2022-08-05T12:11:05.995Z,95425.81
2022-08-05T12:13:48.639Z,95424.16
2022-08-05T12:16:20.376Z,95421.59
2022-08-05T12:18:55.390Z,95411.28
2022-08-05T12:21:30.140Z,95404.09
2022-08-05T12:24:04.799Z,95406.06
2022-08-05T12:26:37.305Z,95399.25
2022-08-05T12:29:09.798Z,95396.09
2022-08-05T12:31:48.285Z,95399.88
2022-08-05T12:34:25.753Z,95395.75
2022-08-05T12:36:55.387Z,95388.13
2022-08-05T12:39:28.094Z,95386.16
2022-08-05T12:42:14.524Z,95388.78
2022-08-05T12:44:44.407Z,95373.81
2022-08-05T12:47:12.856Z,95376.16
2022-08-05T12:50:04.653Z,95373.31
2022-08-05T12:52:38.848Z,95366.03
2022-08-05T12:55:22.541Z,95373.72
2022-08-05T12:58:38.552Z,95375.13
2022-08-05T13:02:04.165Z,95373.00
2022-08-05T13:03:42.250Z,95367.78
2022-08-05T13:06:16.134Z,95364.47
2022-08-05T13:08:50.627Z,95363.31
2022-08-05T13:11:57.860Z,95356.06
2022-08-05T13:14:36.107Z,95369.22
2022-08-05T13:17:10.244Z,95366.22
2022-08-05T13:19:40.283Z,95363.94
2022-08-05T13:22:28.275Z,95366.13
2022-08-05T13:25:00.700Z,95365.16
2022-08-05T13:27:36.425Z,95365.38
2022-08-05T13:30:33.584Z,95358.47
2022-08-05T13:33:01.507Z,95358.16
2022-08-05T13:35:43.282Z,95344.69
2022-08-05T13:38:27.966Z,95351.66
2022-08-05T13:40:59.307Z,95350.78
2022-08-05T13:43:45.341Z,95347.84
2022-08-05T13:46:30.655Z,95343.81
2022-08-05T13:49:10.427Z,95338.53
2022-08-05T13:51:41.463Z,95347.00
2022-08-05T13:54:12.666Z,95345.94
2022-08-05T13:56:45.398Z,95348.00
2022-08-05T13:59:21.280Z,95343.78
2022-08-05T14:01:59.068Z,95346.16
2022-08-05T14:04:50.138Z,95333.63
2022-08-05T14:07:55.781Z,95334.19
2022-08-05T14:10:08.635Z,95323.88
2022-08-05T14:12:36.590Z,95327.81
2022-08-05T14:15:05.897Z,95325.22
2022-08-05T14:17:55.088Z,95319.69
2022-08-05T14:20:29.421Z,95310.66
2022-08-05T14:22:57.563Z,95313.16
2022-08-05T14:25:28.175Z,95304.59
2022-08-05T14:27:58.438Z,95302.63
2022-08-05T14:30:28.026Z,95286.78
2022-08-05T14:32:57.522Z,95279.47
2022-08-05T14:35:36.874Z,95281.63
2022-08-05T14:38:32.788Z,95275.41
2022-08-05T14:41:06.206Z,95277.84
2022-08-05T14:43:57.704Z,95264.47
2022-08-05T14:46:29.116Z,95257.44
2022-08-05T14:49:06.467Z,95250.69
2022-08-05T14:51:36.608Z,95243.81
2022-08-05T14:54:27.892Z,95249.19
2022-08-05T14:56:54.712Z,95246.97
2022-08-05T14:59:22.848Z,95245.97
2022-08-05T15:01:50.860Z,95245.78
2022-08-05T15:04:22.185Z,95248.94
2022-08-05T15:06:51.255Z,95251.41
2022-08-05T15:09:52.706Z,95258.75
2022-08-05T15:12:08.919Z,95264.31
2022-08-05T15:14:48.436Z,95261.63
2022-08-05T15:17:46.840Z,95263.94
2022-08-05T15:20:17.156Z,95262.34
2022-08-05T15:22:54.113Z,95269.16
2022-08-05T15:25:51.251Z,95275.88
2022-08-05T15:28:13.419Z,95283.03
2022-08-05T15:30:43.731Z,95284.72
2022-08-05T15:34:05.941Z,95285.88
2022-08-05T15:36:03.424Z,95285.31
2022-08-05T15:38:35.479Z,95286.03
2022-08-05T15:41:22.859Z,95284.88
2022-08-05T15:43:55.041Z,95280.16
2022-08-05T15:46:24.018Z,95268.38
2022-08-05T15:49:00.646Z,95274.38
2022-08-05T15:52:12.619Z,95267.78
2022-08-05T15:54:34.841Z,95278.50
2022-08-05T15:57:07.412Z,95287.28
2022-08-05T15:59:35.956Z,95279.91
2022-08-05T16:02:03.835Z,95281.44
2022-08-05T16:04:37.713Z,95288.69
2022-08-05T16:07:10.740Z,95283.56
2022-08-05T16:09:41.654Z,95290.16
2022-08-05T16:12:11.417Z,95285.13
2022-08-05T16:14:39.858Z,95280.88
2022-08-05T16:17:07.618Z,95287.75
2022-08-05T16:20:05.159Z,95291.81
2022-08-05T16:22:26.715Z,95282.78
2022-08-05T16:24:55.716Z,95285.63
2022-08-05T16:27:46.793Z,95288.13
2022-08-05T16:30:25.678Z,95284.59
2022-08-05T16:32:54.669Z,95284.25
2022-08-05T16:35:24.807Z,95289.53
2022-08-05T16:38:15.778Z,95280.38
2022-08-05T16:40:51.655Z,95286.03
2022-08-05T16:43:23.466Z,95292.88
2022-08-05T16:46:05.011Z,95293.00
2022-08-05T16:48:38.887Z,95297.84
2022-08-05T16:51:09.837Z,95304.34
2022-08-05T16:54:03.018Z,95301.25
2022-08-05T16:56:30.022Z,95302.44
2022-08-05T16:58:58.401Z,95290.47
2022-08-05T17:01:26.781Z,95294.94
2022-08-05T17:03:54.578Z,95296.19
2022-08-05T17:06:24.634Z,95293.38
2022-08-05T17:08:54.654Z,95304.22
2022-08-05T17:11:25.491Z,95297.88
2022-08-05T17:14:00.279Z,95306.72
2022-08-05T17:16:36.129Z,95311.13
2022-08-05T17:19:07.391Z,95304.72
2022-08-05T17:21:36.894Z,95303.22
2022-08-05T17:24:20.465Z,95309.19
2022-08-05T17:26:56.923Z,95307.59
2022-08-05T17:29:39.988Z,95309.63
2022-08-05T17:32:11.935Z,95311.66
2022-08-05T17:34:47.869Z,95308.16
2022-08-05T17:37:41.648Z,95307.78
2022-08-05T17:40:10.273Z,95309.44
2022-08-05T17:42:41.754Z,95312.66
2022-08-05T17:45:20.664Z,95305.13
2022-08-05T17:47:54.060Z,95303.16
2022-08-05T17:50:28.149Z,95297.19
2022-08-05T17:52:59.750Z,95311.63
2022-08-05T17:55:38.255Z,95310.44
2022-08-05T17:58:11.006Z,95311.69
2022-08-05T18:00:45.028Z,95309.72
2022-08-05T18:03:48.393Z,95319.31
2022-08-05T18:06:06.110Z,95318.53
2022-08-05T18:08:40.595Z,95316.97
2022-08-05T18:11:23.348Z,95311.41
2022-08-05T18:13:52.764Z,95313.00
2022-08-05T18:16:20.826Z,95313.81
2022-08-05T18:18:50.135Z,95315.84
2022-08-05T18:21:20.075Z,95315.03
2022-08-05T18:23:53.829Z,95308.28
2022-08-05T18:26:27.461Z,95311.09
2022-08-05T18:28:57.476Z,95319.84
2022-08-05T18:31:25.653Z,95316.28
2022-08-05T18:34:00.957Z,95319.44
2022-08-05T18:36:29.762Z,95331.00
2022-08-05T18:38:57.622Z,95328.63
2022-08-05T18:41:56.291Z,95340.94
2022-08-05T18:44:14.493Z,95342.16
2022-08-05T18:47:01.644Z,95342.16
2022-08-05T18:49:58.324Z,95342.94
2022-08-05T18:52:35.682Z,95340.94
2022-08-05T18:55:06.191Z,95336.97
2022-08-05T18:57:49.935Z,95338.53
2022-08-05T19:00:27.242Z,95348.50
2022-08-05T19:03:03.177Z,95354.03
2022-08-05T19:06:12.425Z,95362.00
2022-08-05T19:08:21.671Z,95374.34
2022-08-05T19:10:49.741Z,95380.72
2022-08-05T19:13:19.723Z,95384.31
2022-08-05T19:15:57.648Z,95411.28
2022-08-05T19:18:28.653Z,95440.66
2022-08-05T19:20:56.759Z,95458.53
2022-08-05T19:24:05.273Z,95468.81
2022-08-05T19:26:13.952Z,95506.41
2022-08-05T19:28:43.843Z,95521.63
2022-08-05T19:31:13.831Z,95545.69
2022-08-05T19:33:48.675Z,95572.81
2022-08-05T19:36:24.924Z,95598.16
2022-08-05T19:38:54.306Z,95615.34
2022-08-05T19:42:05.756Z,95604.38
2022-08-05T19:44:13.571Z,95600.13
2022-08-05T19:46:43.666Z,95600.41
2022-08-05T19:49:16.824Z,95587.03
2022-08-05T19:52:04.525Z,95582.22
2022-08-05T19:54:34.302Z,95586.00
2022-08-05T19:57:06.619Z,95579.34
2022-08-05T20:00:00.575Z,95555.69
2022-08-05T20:02:32.204Z,95556.81
2022-08-05T20:05:00.326Z,95535.91
2022-08-05T20:07:47.528Z,95529.13
2022-08-05T20:10:19.319Z,95520.19
2022-08-05T20:12:50.024Z,95519.63
2022-08-05T20:15:23.038Z,95529.16
2022-08-05T20:18:10.807Z,95534.44
2022-08-05T20:20:57.946Z,95540.97
2022-08-05T20:23:40.432Z,95545.09
2022-08-05T20:26:17.514Z,95550.50
2022-08-05T20:28:48.415Z,95551.56
2022-08-05T20:31:21.556Z,95552.09
2022-08-05T20:33:51.186Z,95545.44
2022-08-05T20:36:20.582Z,95556.81
2022-08-05T20:38:53.421Z,95551.69
2022-08-05T20:41:23.969Z,95552.84
2022-08-05T20:43:58.712Z,95552.72
2022-08-05T20:46:32.358Z,95556.81
2022-08-05T20:49:00.321Z,95576.34
2022-08-05T20:51:30.340Z,95578.50
2022-08-05T20:54:01.080Z,95603.53
2022-08-05T20:56:32.968Z,95618.13
2022-08-05T20:59:13.990Z,95668.88
2022-08-05T21:01:49.304Z,95672.09
2022-08-05T21:04:18.432Z,95690.47
2022-08-05T21:06:46.229Z,95695.53
2022-08-05T21:09:15.787Z,95697.59
2022-08-05T21:12:11.014Z,95710.34
2022-08-05T21:14:32.057Z,95720.34
2022-08-05T21:17:05.879Z,95713.75
2022-08-05T21:19:46.726Z,95722.13
2022-08-05T21:22:17.724Z,95725.69
2022-08-05T21:24:51.451Z,95726.34
2022-08-05T21:27:20.607Z,95722.50
2022-08-05T21:29:52.687Z,95731.34
2022-08-05T21:32:23.552Z,95732.06
2022-08-05T21:35:08.202Z,95741.69
2022-08-05T21:37:41.263Z,95740.41
2022-08-05T21:40:13.176Z,95740.50
2022-08-05T21:42:44.667Z,95744.97
2022-08-05T21:45:24.471Z,95754.75
2022-08-05T21:47:56.431Z,95781.13
2022-08-05T21:50:25.969Z,95775.09
2022-08-05T21:52:53.799Z,95785.06
2022-08-05T21:55:43.101Z,95780.56
2022-08-05T21:58:14.669Z,95787.78
2022-08-05T22:00:42.593Z,95804.69
2022-08-05T22:03:49.026Z,95813.34
2022-08-05T22:06:08.197Z,95817.94
2022-08-05T22:08:36.183Z,95808.59
2022-08-05T22:11:11.837Z,95810.53
2022-08-05T22:14:32.487Z,95800.38
2022-08-05T22:16:41.846Z,95797.75
2022-08-05T22:20:01.962Z,95794.97
2022-08-05T22:22:08.673Z,95798.69
2022-08-05T22:24:55.935Z,95812.78
2022-08-05T22:28:08.571Z,95820.53
2022-08-05T22:30:32.480Z,95832.19
2022-08-05T22:33:03.260Z,95816.03
2022-08-05T22:35:48.067Z,95811.34
2022-08-05T22:38:16.984Z,95809.53
2022-08-05T22:40:49.384Z,95805.50
2022-08-05T22:43:37.311Z,95806.56
2022-08-05T22:46:12.095Z,95804.44
2022-08-05T22:48:51.211Z,95804.75
2022-08-05T22:51:22.979Z,95805.22
2022-08-05T22:54:08.070Z,95787.69
2022-08-05T22:56:36.231Z,95787.59
2022-08-05T22:59:44.049Z,95788.56
